リヨン の空港の天気 - METARとTAF

サン=テグジュペリ国際空港(リヨン) ( LFLL / LYS ) - フランス リヨン
飛行場実況気象(Metar)
観測時間02/05 21:30 CET (02/05 20:30 UTC)
風向・風速北 9m/s
視程10km以上
天気現象
全天の4割程度の雲 雲底高度 610m
全天の8割程度の雲 雲底高度 2620m
気温5℃
湿度87%
気圧1033hPa
METARLFLL 052030Z 35018KT 9999 SCT020 BKN086 05/03 Q1033 NOSIG
過去の天気等 Google飛行場航空写真 Wunderground天気予報

過去48時間のMETAR

飛行場予報(TAF)
発表時間: 2/05 18:00 CET (2/05 17:00 UTC)
予報対象時間: 5日19時 CET ~ 7日1時 CET
風向・風速北 5m/s
視程10km以上
全天の8割程度の雲 雲底高度 910m
5日19時 CET ~ 6日4時 CET に一時的に
風向・風速北北西 8m/s 瞬間風速 13m/s
5日19時 CET ~ 5日21時 CET に 確率 40% で一時的に
天気現象弱い雨
全天の8割程度の雲 雲底高度 430m
5日23時 CET ~ 6日11時 CET に 確率 40% で一時的に
全天の8割程度の雲 雲底高度 240m
6日23時 CET ~ 7日1時 CET に一時的に
全天の8割程度の雲 雲底高度 370m
TAF LFLL 051700Z 0518/0624 36010KT 9999 BKN030
TEMPO 0518/0603 34015G25KT
PROB40 TEMPO 0518/0520 -RA BKN014
PROB40 TEMPO 0522/0610 BKN008
TEMPO 0622/0624 BKN012